Casitas Springs, California
Current Conditions -  °F | °C
As of 6:51 AM on Sunday 21 Dec 2014 (Local Time) from KOXR Reporting Station
Clear Clear  
Wind Chill: 53°   Ceiling: Unl
Heat Index: 53°   Visibility: 10mi
Dew Point: 48°   Wind: 5mph
Humidity: 83%   Direction: 40°NE
Pressure: 30.13"   Gusts: NA
Location:  34.3488°N, 119.33°W
Report Text: KOXR 211451Z 04004KT 10SM CLR 12/09 A3013 RMK AO2 SLP204 T01170089 51006
Loading
Personal Weather Stations






























Interactive Weather Map New forecast layout! Learn more

10-Day Weather Forecast

Advertisements
Track Severe Weather on mobile